sensor_id;sensor_type;location;lat;lon;timestamp;P1;durP1;ratioP1;P2;durP2;ratioP2
54125;SDS011;40360;52.992;6.796;2023-04-24T00:02:04;1.55;;;1.20;;
54125;SDS011;40360;52.992;6.796;2023-04-24T00:04:31;1.08;;;0.98;;
54125;SDS011;40360;52.992;6.796;2023-04-24T00:06:57;1.08;;;0.77;;
54125;SDS011;40360;52.992;6.796;2023-04-24T00:09:25;0.80;;;0.70;;
54125;SDS011;40360;52.992;6.796;2023-04-24T00:11:51;0.77;;;0.77;;
54125;SDS011;40360;52.992;6.796;2023-04-24T00:14:18;0.85;;;0.70;;
54125;SDS011;40360;52.992;6.796;2023-04-24T00:16:44;2.15;;;0.88;;
54125;SDS011;40360;52.992;6.796;2023-04-24T00:19:10;1.30;;;0.88;;
54125;SDS011;40360;52.992;6.796;2023-04-24T00:21:36;2.88;;;1.30;;
54125;SDS011;40360;52.992;6.796;2023-04-24T00:24:02;1.20;;;1.10;;
54125;SDS011;40360;52.992;6.796;2023-04-24T00:26:28;1.42;;;1.20;;
54125;SDS011;40360;52.992;6.796;2023-04-24T00:28:57;3.00;;;1.33;;
54125;SDS011;40360;52.992;6.796;2023-04-24T00:31:22;2.00;;;1.80;;
54125;SDS011;40360;52.992;6.796;2023-04-24T00:33:48;1.67;;;1.58;;
54125;SDS011;40360;52.992;6.796;2023-04-24T00:36:13;1.48;;;1.38;;
54125;SDS011;40360;52.992;6.796;2023-04-24T00:38:39;3.00;;;1.70;;
54125;SDS011;40360;52.992;6.796;2023-04-24T00:41:05;3.22;;;2.15;;
54125;SDS011;40360;52.992;6.796;2023-04-24T00:43:32;1.63;;;1.52;;
54125;SDS011;40360;52.992;6.796;2023-04-24T00:45:57;2.35;;;2.15;;
54125;SDS011;40360;52.992;6.796;2023-04-24T00:48:24;3.20;;;1.90;;
54125;SDS011;40360;52.992;6.796;2023-04-24T00:50:50;2.20;;;2.00;;
54125;SDS011;40360;52.992;6.796;2023-04-24T00:53:16;2.08;;;1.88;;
54125;SDS011;40360;52.992;6.796;2023-04-24T00:55:41;2.20;;;2.00;;
54125;SDS011;40360;52.992;6.796;2023-04-24T00:58:07;2.58;;;2.38;;
54125;SDS011;40360;52.992;6.796;2023-04-24T01:00:33;2.50;;;2.30;;
54125;SDS011;40360;52.992;6.796;2023-04-24T01:02:59;2.17;;;1.92;;
54125;SDS011;40360;52.992;6.796;2023-04-24T01:05:26;2.92;;;2.58;;
54125;SDS011;40360;52.992;6.796;2023-04-24T01:07:52;2.78;;;2.58;;
54125;SDS011;40360;52.992;6.796;2023-04-24T01:10:18;2.83;;;2.63;;
54125;SDS011;40360;52.992;6.796;2023-04-24T01:12:45;3.63;;;3.30;;
54125;SDS011;40360;52.992;6.796;2023-04-24T01:15:11;3.72;;;3.38;;
54125;SDS011;40360;52.992;6.796;2023-04-24T01:17:37;3.80;;;3.50;;
54125;SDS011;40360;52.992;6.796;2023-04-24T01:20:03;4.28;;;3.70;;
54125;SDS011;40360;52.992;6.796;2023-04-24T01:22:30;4.35;;;3.95;;
54125;SDS011;40360;52.992;6.796;2023-04-24T01:24:57;4.35;;;3.85;;
54125;SDS011;40360;52.992;6.796;2023-04-24T01:27:23;4.47;;;4.07;;
54125;SDS011;40360;52.992;6.796;2023-04-24T01:29:49;4.85;;;4.35;;
54125;SDS011;40360;52.992;6.796;2023-04-24T01:32:16;5.28;;;4.78;;
54125;SDS011;40360;52.992;6.796;2023-04-24T01:34:43;5.70;;;5.10;;
54125;SDS011;40360;52.992;6.796;2023-04-24T01:37:10;5.57;;;5.07;;
54125;SDS011;40360;52.992;6.796;2023-04-24T01:39:35;6.10;;;5.00;;
54125;SDS011;40360;52.992;6.796;2023-04-24T01:42:01;7.05;;;6.35;;
54125;SDS011;40360;52.992;6.796;2023-04-24T01:44:27;7.10;;;6.40;;
54125;SDS011;40360;52.992;6.796;2023-04-24T01:46:53;7.07;;;6.38;;
54125;SDS011;40360;52.992;6.796;2023-04-24T01:49:20;7.43;;;6.72;;
54125;SDS011;40360;52.992;6.796;2023-04-24T01:51:46;6.93;;;6.22;;
54125;SDS011;40360;52.992;6.796;2023-04-24T01:54:12;7.07;;;6.38;;
54125;SDS011;40360;52.992;6.796;2023-04-24T01:56:40;7.80;;;7.00;;
54125;SDS011;40360;52.992;6.796;2023-04-24T01:59:10;8.77;;;7.32;;
54125;SDS011;40360;52.992;6.796;2023-04-24T02:01:36;8.60;;;7.78;;
54125;SDS011;40360;52.992;6.796;2023-04-24T02:04:03;8.23;;;7.43;;
54125;SDS011;40360;52.992;6.796;2023-04-24T02:06:29;8.02;;;7.22;;
54125;SDS011;40360;52.992;6.796;2023-04-24T02:08:56;7.20;;;6.50;;
54125;SDS011;40360;52.992;6.796;2023-04-24T02:11:25;8.18;;;7.05;;
54125;SDS011;40360;52.992;6.796;2023-04-24T02:13:51;7.43;;;6.72;;
54125;SDS011;40360;52.992;6.796;2023-04-24T02:16:18;7.78;;;6.93;;
54125;SDS011;40360;52.992;6.796;2023-04-24T02:18:43;8.48;;;7.68;;
54125;SDS011;40360;52.992;6.796;2023-04-24T02:21:09;8.88;;;8.10;;
54125;SDS011;40360;52.992;6.796;2023-04-24T02:23:35;8.23;;;7.43;;
54125;SDS011;40360;52.992;6.796;2023-04-24T02:26:00;8.43;;;7.72;;
54125;SDS011;40360;52.992;6.796;2023-04-24T02:28:26;7.88;;;7.18;;
54125;SDS011;40360;52.992;6.796;2023-04-24T02:30:52;8.95;;;8.15;;
54125;SDS011;40360;52.992;6.796;2023-04-24T02:33:17;8.65;;;7.85;;
54125;SDS011;40360;52.992;6.796;2023-04-24T02:35:43;9.10;;;8.30;;
54125;SDS011;40360;52.992;6.796;2023-04-24T02:38:08;8.38;;;7.63;;
54125;SDS011;40360;52.992;6.796;2023-04-24T02:40:34;20.27;;;8.57;;
54125;SDS011;40360;52.992;6.796;2023-04-24T02:42:59;7.68;;;6.97;;
54125;SDS011;40360;52.992;6.796;2023-04-24T02:45:25;8.63;;;7.72;;
54125;SDS011;40360;52.992;6.796;2023-04-24T02:47:51;7.95;;;7.25;;
54125;SDS011;40360;52.992;6.796;2023-04-24T02:50:16;7.85;;;7.07;;
54125;SDS011;40360;52.992;6.796;2023-04-24T02:52:42;7.60;;;6.90;;
54125;SDS011;40360;52.992;6.796;2023-04-24T02:55:08;8.48;;;7.78;;
54125;SDS011;40360;52.992;6.796;2023-04-24T02:57:33;8.07;;;7.38;;
54125;SDS011;40360;52.992;6.796;2023-04-24T02:59:59;7.97;;;7.28;;
54125;SDS011;40360;52.992;6.796;2023-04-24T03:02:25;8.65;;;7.85;;
54125;SDS011;40360;52.992;6.796;2023-04-24T03:04:50;8.73;;;8.02;;
54125;SDS011;40360;52.992;6.796;2023-04-24T03:07:16;8.55;;;7.70;;
54125;SDS011;40360;52.992;6.796;2023-04-24T03:09:42;9.25;;;8.45;;
54125;SDS011;40360;52.992;6.796;2023-04-24T03:12:07;9.05;;;8.15;;
54125;SDS011;40360;52.992;6.796;2023-04-24T03:14:33;8.93;;;8.02;;
54125;SDS011;40360;52.992;6.796;2023-04-24T03:16:59;8.90;;;8.10;;
54125;SDS011;40360;52.992;6.796;2023-04-24T03:19:25;8.73;;;7.75;;
54125;SDS011;40360;52.992;6.796;2023-04-24T03:21:51;9.32;;;8.43;;
54125;SDS011;40360;52.992;6.796;2023-04-24T03:24:16;8.73;;;7.85;;
54125;SDS011;40360;52.992;6.796;2023-04-24T03:26:42;11.40;;;8.35;;
54125;SDS011;40360;52.992;6.796;2023-04-24T03:29:07;9.35;;;8.40;;
54125;SDS011;40360;52.992;6.796;2023-04-24T03:31:33;8.77;;;7.93;;
54125;SDS011;40360;52.992;6.796;2023-04-24T03:33:59;8.75;;;7.85;;
54125;SDS011;40360;52.992;6.796;2023-04-24T03:36:24;9.60;;;8.70;;
54125;SDS011;40360;52.992;6.796;2023-04-24T03:38:51;9.20;;;8.40;;
54125;SDS011;40360;52.992;6.796;2023-04-24T03:41:16;11.02;;;9.73;;
54125;SDS011;40360;52.992;6.796;2023-04-24T03:43:42;10.55;;;9.63;;
54125;SDS011;40360;52.992;6.796;2023-04-24T03:46:08;10.55;;;9.60;;
54125;SDS011;40360;52.992;6.796;2023-04-24T03:48:34;10.05;;;9.15;;
54125;SDS011;40360;52.992;6.796;2023-04-24T03:51:00;10.93;;;9.93;;
54125;SDS011;40360;52.992;6.796;2023-04-24T03:53:25;9.95;;;8.95;;
54125;SDS011;40360;52.992;6.796;2023-04-24T03:55:52;10.65;;;9.63;;
54125;SDS011;40360;52.992;6.796;2023-04-24T03:58:18;10.68;;;9.65;;
54125;SDS011;40360;52.992;6.796;2023-04-24T04:00:44;11.82;;;9.50;;
54125;SDS011;40360;52.992;6.796;2023-04-24T04:03:11;10.60;;;9.60;;
54125;SDS011;40360;52.992;6.796;2023-04-24T04:05:38;10.45;;;9.35;;
54125;SDS011;40360;52.992;6.796;2023-04-24T04:08:04;9.18;;;8.30;;
54125;SDS011;40360;52.992;6.796;2023-04-24T04:10:30;10.20;;;9.30;;
54125;SDS011;40360;52.992;6.796;2023-04-24T04:12:55;9.23;;;8.43;;
54125;SDS011;40360;52.992;6.796;2023-04-24T04:15:21;10.30;;;9.30;;
54125;SDS011;40360;52.992;6.796;2023-04-24T04:17:46;8.98;;;8.18;;
54125;SDS011;40360;52.992;6.796;2023-04-24T04:20:12;8.90;;;8.10;;
54125;SDS011;40360;52.992;6.796;2023-04-24T04:22:38;9.40;;;8.50;;
54125;SDS011;40360;52.992;6.796;2023-04-24T04:25:04;8.40;;;7.63;;
54125;SDS011;40360;52.992;6.796;2023-04-24T04:27:30;8.52;;;7.72;;
54125;SDS011;40360;52.992;6.796;2023-04-24T04:30:00;7.60;;;6.90;;
54125;SDS011;40360;52.992;6.796;2023-04-24T04:32:29;7.25;;;6.55;;
54125;SDS011;40360;52.992;6.796;2023-04-24T04:34:59;8.32;;;6.65;;
54125;SDS011;40360;52.992;6.796;2023-04-24T04:37:28;7.63;;;6.72;;
54125;SDS011;40360;52.992;6.796;2023-04-24T04:39:54;6.78;;;6.13;;
54125;SDS011;40360;52.992;6.796;2023-04-24T04:42:19;8.30;;;5.97;;
54125;SDS011;40360;52.992;6.796;2023-04-24T04:44:45;6.97;;;6.28;;
54125;SDS011;40360;52.992;6.796;2023-04-24T04:47:11;5.65;;;5.15;;
54125;SDS011;40360;52.992;6.796;2023-04-24T04:49:37;5.85;;;4.82;;
54125;SDS011;40360;52.992;6.796;2023-04-24T04:52:03;4.72;;;4.32;;
54125;SDS011;40360;52.992;6.796;2023-04-24T04:54:30;5.13;;;4.40;;
54125;SDS011;40360;52.992;6.796;2023-04-24T04:56:55;5.82;;;5.22;;
54125;SDS011;40360;52.992;6.796;2023-04-24T04:59:22;6.38;;;5.78;;
54125;SDS011;40360;52.992;6.796;2023-04-24T05:01:47;8.95;;;7.03;;
54125;SDS011;40360;52.992;6.796;2023-04-24T05:04:13;8.35;;;7.55;;
54125;SDS011;40360;52.992;6.796;2023-04-24T05:06:39;8.70;;;7.88;;
54125;SDS011;40360;52.992;6.796;2023-04-24T05:09:04;8.27;;;7.50;;
54125;SDS011;40360;52.992;6.796;2023-04-24T05:11:32;8.57;;;7.57;;
54125;SDS011;40360;52.992;6.796;2023-04-24T05:13:57;7.75;;;6.95;;
54125;SDS011;40360;52.992;6.796;2023-04-24T05:16:23;7.40;;;6.70;;
54125;SDS011;40360;52.992;6.796;2023-04-24T05:18:49;7.95;;;7.25;;
54125;SDS011;40360;52.992;6.796;2023-04-24T05:21:14;7.47;;;6.68;;
54125;SDS011;40360;52.992;6.796;2023-04-24T05:23:40;8.88;;;7.45;;
54125;SDS011;40360;52.992;6.796;2023-04-24T05:26:06;6.82;;;6.07;;
54125;SDS011;40360;52.992;6.796;2023-04-24T05:28:31;7.45;;;6.13;;
54125;SDS011;40360;52.992;6.796;2023-04-24T05:30:57;8.35;;;6.10;;
54125;SDS011;40360;52.992;6.796;2023-04-24T05:33:24;7.07;;;6.00;;
54125;SDS011;40360;52.992;6.796;2023-04-24T05:35:50;7.32;;;5.45;;
54125;SDS011;40360;52.992;6.796;2023-04-24T05:38:15;7.03;;;5.70;;
54125;SDS011;40360;52.992;6.796;2023-04-24T05:40:45;6.70;;;5.43;;
54125;SDS011;40360;52.992;6.796;2023-04-24T06:01:00;8.15;;;5.70;;
54125;SDS011;40360;52.992;6.796;2023-04-24T06:03:26;7.43;;;6.43;;
54125;SDS011;40360;52.992;6.796;2023-04-24T06:05:52;7.43;;;6.22;;
54125;SDS011;40360;52.992;6.796;2023-04-24T06:08:18;7.18;;;6.25;;
54125;SDS011;40360;52.992;6.796;2023-04-24T06:10:44;6.15;;;5.10;;
54125;SDS011;40360;52.992;6.796;2023-04-24T06:13:10;6.35;;;5.25;;
54125;SDS011;40360;52.992;6.796;2023-04-24T06:15:36;9.07;;;6.95;;
54125;SDS011;40360;52.992;6.796;2023-04-24T06:18:02;5.78;;;4.70;;
54125;SDS011;40360;52.992;6.796;2023-04-24T06:20:28;6.68;;;5.45;;
54125;SDS011;40360;52.992;6.796;2023-04-24T06:22:53;7.47;;;5.88;;
54125;SDS011;40360;52.992;6.796;2023-04-24T06:25:19;6.47;;;5.43;;
54125;SDS011;40360;52.992;6.796;2023-04-24T06:27:45;6.65;;;5.47;;
54125;SDS011;40360;52.992;6.796;2023-04-24T06:30:11;5.93;;;4.90;;
54125;SDS011;40360;52.992;6.796;2023-04-24T06:32:37;8.27;;;5.63;;
54125;SDS011;40360;52.992;6.796;2023-04-24T06:35:03;7.82;;;5.30;;
54125;SDS011;40360;52.992;6.796;2023-04-24T06:37:29;6.90;;;5.60;;
54125;SDS011;40360;52.992;6.796;2023-04-24T06:39:54;8.23;;;6.10;;
54125;SDS011;40360;52.992;6.796;2023-04-24T06:42:20;6.35;;;5.75;;
54125;SDS011;40360;52.992;6.796;2023-04-24T06:44:47;6.95;;;5.10;;
54125;SDS011;40360;52.992;6.796;2023-04-24T06:47:12;6.72;;;5.50;;
54125;SDS011;40360;52.992;6.796;2023-04-24T06:49:38;6.78;;;5.20;;
54125;SDS011;40360;52.992;6.796;2023-04-24T06:52:04;6.50;;;5.30;;
54125;SDS011;40360;52.992;6.796;2023-04-24T06:54:31;5.50;;;4.50;;
54125;SDS011;40360;52.992;6.796;2023-04-24T06:56:57;5.45;;;4.75;;
54125;SDS011;40360;52.992;6.796;2023-04-24T06:59:27;5.88;;;4.40;;
54125;SDS011;40360;52.992;6.796;2023-04-24T07:01:53;4.78;;;4.15;;
54125;SDS011;40360;52.992;6.796;2023-04-24T07:04:19;5.93;;;4.13;;
54125;SDS011;40360;52.992;6.796;2023-04-24T07:06:45;3.85;;;2.90;;
54125;SDS011;40360;52.992;6.796;2023-04-24T07:09:11;3.28;;;2.50;;
54125;SDS011;40360;52.992;6.796;2023-04-24T07:11:38;3.50;;;2.92;;
54125;SDS011;40360;52.992;6.796;2023-04-24T07:14:05;5.10;;;3.50;;
54125;SDS011;40360;52.992;6.796;2023-04-24T07:16:31;4.93;;;3.80;;
54125;SDS011;40360;52.992;6.796;2023-04-24T07:18:57;4.90;;;3.80;;
54125;SDS011;40360;52.992;6.796;2023-04-24T07:21:23;7.50;;;4.30;;
54125;SDS011;40360;52.992;6.796;2023-04-24T07:23:48;6.97;;;4.80;;
54125;SDS011;40360;52.992;6.796;2023-04-24T07:26:14;6.38;;;5.15;;
54125;SDS011;40360;52.992;6.796;2023-04-24T07:28:40;6.38;;;4.95;;
54125;SDS011;40360;52.992;6.796;2023-04-24T07:31:06;9.55;;;5.97;;
54125;SDS011;40360;52.992;6.796;2023-04-24T07:33:33;9.50;;;6.57;;
54125;SDS011;40360;52.992;6.796;2023-04-24T07:36:01;7.90;;;6.13;;
54125;SDS011;40360;52.992;6.796;2023-04-24T07:38:29;8.90;;;6.70;;
54125;SDS011;40360;52.992;6.796;2023-04-24T07:40:54;9.88;;;6.18;;
54125;SDS011;40360;52.992;6.796;2023-04-24T07:43:20;7.15;;;5.25;;
54125;SDS011;40360;52.992;6.796;2023-04-24T07:45:47;6.30;;;4.22;;
54125;SDS011;40360;52.992;6.796;2023-04-24T07:48:12;8.65;;;3.88;;
54125;SDS011;40360;52.992;6.796;2023-04-24T07:50:41;5.93;;;3.60;;
54125;SDS011;40360;52.992;6.796;2023-04-24T07:53:07;4.25;;;3.28;;
54125;SDS011;40360;52.992;6.796;2023-04-24T07:55:32;4.53;;;2.88;;
54125;SDS011;40360;52.992;6.796;2023-04-24T07:57:58;3.67;;;1.90;;
54125;SDS011;40360;52.992;6.796;2023-04-24T08:00:24;4.32;;;2.20;;
54125;SDS011;40360;52.992;6.796;2023-04-24T08:02:50;3.60;;;2.20;;
54125;SDS011;40360;52.992;6.796;2023-04-24T08:05:15;3.58;;;2.95;;
54125;SDS011;40360;52.992;6.796;2023-04-24T08:07:41;3.90;;;2.05;;
54125;SDS011;40360;52.992;6.796;2023-04-24T08:10:08;6.40;;;2.90;;
54125;SDS011;40360;52.992;6.796;2023-04-24T08:12:35;6.85;;;2.63;;
54125;SDS011;40360;52.992;6.796;2023-04-24T08:15:01;4.78;;;3.38;;
54125;SDS011;40360;52.992;6.796;2023-04-24T08:17:27;4.03;;;2.47;;
54125;SDS011;40360;52.992;6.796;2023-04-24T08:19:53;4.32;;;2.63;;
54125;SDS011;40360;52.992;6.796;2023-04-24T08:22:26;5.60;;;2.92;;
54125;SDS011;40360;52.992;6.796;2023-04-24T08:24:52;4.43;;;2.55;;
54125;SDS011;40360;52.992;6.796;2023-04-24T08:27:18;4.82;;;2.90;;
54125;SDS011;40360;52.992;6.796;2023-04-24T08:29:44;5.70;;;2.50;;
54125;SDS011;40360;52.992;6.796;2023-04-24T08:32:09;7.43;;;3.17;;
54125;SDS011;40360;52.992;6.796;2023-04-24T08:34:35;6.35;;;2.95;;
54125;SDS011;40360;52.992;6.796;2023-04-24T08:37:00;5.25;;;3.65;;
54125;SDS011;40360;52.992;6.796;2023-04-24T08:39:27;7.47;;;4.00;;
54125;SDS011;40360;52.992;6.796;2023-04-24T08:41:53;11.10;;;6.05;;
54125;SDS011;40360;52.992;6.796;2023-04-24T08:44:20;10.80;;;5.70;;
54125;SDS011;40360;52.992;6.796;2023-04-24T08:46:47;11.57;;;6.45;;
54125;SDS011;40360;52.992;6.796;2023-04-24T08:49:14;13.02;;;7.70;;
54125;SDS011;40360;52.992;6.796;2023-04-24T08:51:42;20.60;;;11.57;;
54125;SDS011;40360;52.992;6.796;2023-04-24T08:54:11;24.55;;;12.20;;
54125;SDS011;40360;52.992;6.796;2023-04-24T08:56:37;18.85;;;13.27;;
54125;SDS011;40360;52.992;6.796;2023-04-24T08:59:05;21.50;;;13.57;;
54125;SDS011;40360;52.992;6.796;2023-04-24T09:01:32;24.00;;;14.57;;
54125;SDS011;40360;52.992;6.796;2023-04-24T09:03:58;31.23;;;15.68;;
54125;SDS011;40360;52.992;6.796;2023-04-24T09:06:27;26.45;;;13.48;;
54125;SDS011;40360;52.992;6.796;2023-04-24T09:08:53;28.00;;;14.93;;
54125;SDS011;40360;52.992;6.796;2023-04-24T09:11:20;26.00;;;15.20;;
54125;SDS011;40360;52.992;6.796;2023-04-24T09:13:49;21.42;;;14.68;;
54125;SDS011;40360;52.992;6.796;2023-04-24T09:16:16;23.10;;;15.40;;
54125;SDS011;40360;52.992;6.796;2023-04-24T09:18:42;28.48;;;15.38;;
54125;SDS011;40360;52.992;6.796;2023-04-24T09:21:08;28.15;;;14.50;;
54125;SDS011;40360;52.992;6.796;2023-04-24T09:23:34;23.55;;;15.40;;
54125;SDS011;40360;52.992;6.796;2023-04-24T09:26:01;25.45;;;14.80;;
54125;SDS011;40360;52.992;6.796;2023-04-24T09:28:34;26.98;;;15.18;;
54125;SDS011;40360;52.992;6.796;2023-04-24T09:31:06;23.27;;;14.52;;
54125;SDS011;40360;52.992;6.796;2023-04-24T09:33:33;22.15;;;15.60;;
54125;SDS011;40360;52.992;6.796;2023-04-24T09:36:00;27.23;;;16.08;;
54125;SDS011;40360;52.992;6.796;2023-04-24T09:38:32;23.10;;;15.63;;
54125;SDS011;40360;52.992;6.796;2023-04-24T09:41:01;23.90;;;15.52;;
54125;SDS011;40360;52.992;6.796;2023-04-24T09:43:28;23.90;;;14.63;;
54125;SDS011;40360;52.992;6.796;2023-04-24T09:45:58;28.90;;;15.10;;
54125;SDS011;40360;52.992;6.796;2023-04-24T09:48:35;22.33;;;15.02;;
54125;SDS011;40360;52.992;6.796;2023-04-24T09:51:02;19.85;;;12.63;;
54125;SDS011;40360;52.992;6.796;2023-04-24T09:53:29;22.40;;;14.07;;
54125;SDS011;40360;52.992;6.796;2023-04-24T09:55:55;21.88;;;14.63;;
54125;SDS011;40360;52.992;6.796;2023-04-24T09:58:26;20.02;;;13.07;;
54125;SDS011;40360;52.992;6.796;2023-04-24T10:00:54;17.15;;;12.70;;
54125;SDS011;40360;52.992;6.796;2023-04-24T10:03:21;17.20;;;11.55;;
54125;SDS011;40360;52.992;6.796;2023-04-24T10:05:51;21.35;;;12.52;;
54125;SDS011;40360;52.992;6.796;2023-04-24T10:08:17;20.25;;;12.55;;
54125;SDS011;40360;52.992;6.796;2023-04-24T10:10:43;19.45;;;11.93;;
54125;SDS011;40360;52.992;6.796;2023-04-24T10:13:10;17.58;;;11.70;;
54125;SDS011;40360;52.992;6.796;2023-04-24T10:15:37;23.02;;;13.00;;
54125;SDS011;40360;52.992;6.796;2023-04-24T10:18:04;13.77;;;10.48;;
54125;SDS011;40360;52.992;6.796;2023-04-24T10:20:31;15.65;;;10.82;;
54125;SDS011;40360;52.992;6.796;2023-04-24T10:22:58;15.18;;;12.23;;
54125;SDS011;40360;52.992;6.796;2023-04-24T10:25:28;14.88;;;9.55;;
54125;SDS011;40360;52.992;6.796;2023-04-24T10:27:55;17.02;;;9.25;;
54125;SDS011;40360;52.992;6.796;2023-04-24T10:30:25;12.20;;;8.30;;
54125;SDS011;40360;52.992;6.796;2023-04-24T10:32:52;13.95;;;7.68;;
54125;SDS011;40360;52.992;6.796;2023-04-24T10:35:18;20.80;;;9.27;;
54125;SDS011;40360;52.992;6.796;2023-04-24T10:37:57;15.60;;;7.95;;
54125;SDS011;40360;52.992;6.796;2023-04-24T10:40:32;14.70;;;8.57;;
54125;SDS011;40360;52.992;6.796;2023-04-24T10:42:58;15.10;;;8.32;;
54125;SDS011;40360;52.992;6.796;2023-04-24T10:45:27;15.73;;;8.02;;
54125;SDS011;40360;52.992;6.796;2023-04-24T10:48:02;14.50;;;7.88;;
54125;SDS011;40360;52.992;6.796;2023-04-24T10:50:46;18.38;;;7.22;;
54125;SDS011;40360;52.992;6.796;2023-04-24T10:53:19;9.25;;;5.68;;
54125;SDS011;40360;52.992;6.796;2023-04-24T10:55:48;10.52;;;5.55;;
54125;SDS011;40360;52.992;6.796;2023-04-24T10:58:15;10.38;;;5.43;;
54125;SDS011;40360;52.992;6.796;2023-04-24T11:00:42;8.85;;;4.75;;
54125;SDS011;40360;52.992;6.796;2023-04-24T11:08:23;8.25;;;3.97;;
54125;SDS011;40360;52.992;6.796;2023-04-24T11:11:17;9.52;;;3.70;;
54125;SDS011;40360;52.992;6.796;2023-04-24T11:24:48;7.28;;;3.47;;
54125;SDS011;40360;52.992;6.796;2023-04-24T11:27:18;13.07;;;4.25;;
54125;SDS011;40360;52.992;6.796;2023-04-24T11:29:48;7.65;;;2.95;;
54125;SDS011;40360;52.992;6.796;2023-04-24T11:34:59;10.63;;;3.33;;
54125;SDS011;40360;52.992;6.796;2023-04-24T11:37:38;10.00;;;3.72;;
54125;SDS011;40360;52.992;6.796;2023-04-24T11:40:06;7.07;;;2.88;;
54125;SDS011;40360;52.992;6.796;2023-04-24T11:42:37;6.32;;;3.42;;
54125;SDS011;40360;52.992;6.796;2023-04-24T11:45:07;5.97;;;3.28;;
54125;SDS011;40360;52.992;6.796;2023-04-24T11:47:34;7.43;;;2.50;;
54125;SDS011;40360;52.992;6.796;2023-04-24T11:50:00;4.22;;;1.92;;
54125;SDS011;40360;52.992;6.796;2023-04-24T11:52:27;9.95;;;2.55;;
54125;SDS011;40360;52.992;6.796;2023-04-24T11:54:53;9.48;;;2.72;;
54125;SDS011;40360;52.992;6.796;2023-04-24T11:57:19;8.05;;;2.92;;
54125;SDS011;40360;52.992;6.796;2023-04-24T11:59:46;8.23;;;2.67;;
54125;SDS011;40360;52.992;6.796;2023-04-24T12:02:19;8.73;;;2.55;;
54125;SDS011;40360;52.992;6.796;2023-04-24T12:04:46;7.57;;;3.42;;
54125;SDS011;40360;52.992;6.796;2023-04-24T12:07:11;8.40;;;3.28;;
54125;SDS011;40360;52.992;6.796;2023-04-24T12:09:44;7.88;;;2.75;;
54125;SDS011;40360;52.992;6.796;2023-04-24T12:12:12;10.90;;;2.75;;
54125;SDS011;40360;52.992;6.796;2023-04-24T12:17:15;6.90;;;2.35;;
54125;SDS011;40360;52.992;6.796;2023-04-24T12:19:45;8.30;;;1.90;;
54125;SDS011;40360;52.992;6.796;2023-04-24T12:22:12;5.07;;;1.80;;
54125;SDS011;40360;52.992;6.796;2023-04-24T12:24:55;6.28;;;2.50;;
54125;SDS011;40360;52.992;6.796;2023-04-24T12:27:22;3.50;;;2.00;;
54125;SDS011;40360;52.992;6.796;2023-04-24T12:30:09;7.53;;;3.15;;
54125;SDS011;40360;52.992;6.796;2023-04-24T12:32:40;7.80;;;2.25;;
54125;SDS011;40360;52.992;6.796;2023-04-24T12:35:07;8.05;;;2.50;;
54125;SDS011;40360;52.992;6.796;2023-04-24T12:37:33;4.47;;;2.05;;
54125;SDS011;40360;52.992;6.796;2023-04-24T12:40:02;7.47;;;2.13;;
54125;SDS011;40360;52.992;6.796;2023-04-24T12:42:28;6.60;;;2.55;;
54125;SDS011;40360;52.992;6.796;2023-04-24T12:45:04;4.18;;;2.05;;
54125;SDS011;40360;52.992;6.796;2023-04-24T12:49:57;7.38;;;1.98;;
54125;SDS011;40360;52.992;6.796;2023-04-24T12:52:24;10.13;;;3.25;;
54125;SDS011;40360;52.992;6.796;2023-04-24T12:54:53;8.60;;;2.65;;
54125;SDS011;40360;52.992;6.796;2023-04-24T12:57:20;7.07;;;2.08;;
54125;SDS011;40360;52.992;6.796;2023-04-24T12:59:46;5.93;;;2.17;;
54125;SDS011;40360;52.992;6.796;2023-04-24T13:02:12;6.40;;;2.15;;
54125;SDS011;40360;52.992;6.796;2023-04-24T13:04:38;5.75;;;1.77;;
54125;SDS011;40360;52.992;6.796;2023-04-24T13:07:04;5.78;;;1.60;;
54125;SDS011;40360;52.992;6.796;2023-04-24T13:09:30;4.18;;;1.42;;
54125;SDS011;40360;52.992;6.796;2023-04-24T13:11:56;7.03;;;2.13;;
54125;SDS011;40360;52.992;6.796;2023-04-24T13:14:22;7.32;;;2.13;;
54125;SDS011;40360;52.992;6.796;2023-04-24T13:16:48;5.60;;;1.80;;
54125;SDS011;40360;52.992;6.796;2023-04-24T13:19:14;8.90;;;2.20;;
54125;SDS011;40360;52.992;6.796;2023-04-24T13:21:40;5.65;;;2.47;;
54125;SDS011;40360;52.992;6.796;2023-04-24T13:24:06;5.25;;;2.13;;
54125;SDS011;40360;52.992;6.796;2023-04-24T13:26:32;8.43;;;2.65;;
54125;SDS011;40360;52.992;6.796;2023-04-24T13:28:58;10.40;;;2.10;;
54125;SDS011;40360;52.992;6.796;2023-04-24T13:31:24;4.85;;;1.55;;
54125;SDS011;40360;52.992;6.796;2023-04-24T13:33:50;5.38;;;1.45;;
54125;SDS011;40360;52.992;6.796;2023-04-24T13:36:15;7.18;;;1.20;;
54125;SDS011;40360;52.992;6.796;2023-04-24T13:38:42;3.00;;;1.48;;
54125;SDS011;40360;52.992;6.796;2023-04-24T13:41:11;3.13;;;1.17;;
54125;SDS011;40360;52.992;6.796;2023-04-24T13:43:36;3.92;;;1.63;;
54125;SDS011;40360;52.992;6.796;2023-04-24T13:46:02;8.00;;;1.70;;
54125;SDS011;40360;52.992;6.796;2023-04-24T13:48:28;6.78;;;1.50;;
54125;SDS011;40360;52.992;6.796;2023-04-24T13:50:54;5.55;;;1.35;;
54125;SDS011;40360;52.992;6.796;2023-04-24T13:53:20;8.18;;;1.45;;
54125;SDS011;40360;52.992;6.796;2023-04-24T13:55:45;3.38;;;1.10;;
54125;SDS011;40360;52.992;6.796;2023-04-24T13:58:11;3.40;;;1.27;;
54125;SDS011;40360;52.992;6.796;2023-04-24T14:00:37;4.93;;;1.20;;
54125;SDS011;40360;52.992;6.796;2023-04-24T14:03:02;2.95;;;1.13;;
54125;SDS011;40360;52.992;6.796;2023-04-24T14:05:28;4.18;;;1.60;;
54125;SDS011;40360;52.992;6.796;2023-04-24T14:07:54;4.88;;;1.15;;
54125;SDS011;40360;52.992;6.796;2023-04-24T14:10:20;5.75;;;1.77;;
54125;SDS011;40360;52.992;6.796;2023-04-24T14:12:45;5.30;;;1.15;;
54125;SDS011;40360;52.992;6.796;2023-04-24T14:15:11;4.68;;;0.98;;
54125;SDS011;40360;52.992;6.796;2023-04-24T14:17:38;2.38;;;1.00;;
54125;SDS011;40360;52.992;6.796;2023-04-24T14:20:04;4.40;;;0.93;;
54125;SDS011;40360;52.992;6.796;2023-04-24T14:22:31;2.38;;;0.98;;
54125;SDS011;40360;52.992;6.796;2023-04-24T14:24:57;2.85;;;1.23;;
54125;SDS011;40360;52.992;6.796;2023-04-24T14:27:24;5.05;;;1.70;;
54125;SDS011;40360;52.992;6.796;2023-04-24T14:29:50;2.88;;;0.93;;
54125;SDS011;40360;52.992;6.796;2023-04-24T14:32:15;3.78;;;0.95;;
54125;SDS011;40360;52.992;6.796;2023-04-24T14:34:41;4.18;;;1.45;;
54125;SDS011;40360;52.992;6.796;2023-04-24T14:37:07;6.60;;;1.50;;
54125;SDS011;40360;52.992;6.796;2023-04-24T14:39:32;7.00;;;1.50;;
54125;SDS011;40360;52.992;6.796;2023-04-24T14:41:58;9.35;;;1.70;;
54125;SDS011;40360;52.992;6.796;2023-04-24T14:44:24;4.80;;;1.92;;
54125;SDS011;40360;52.992;6.796;2023-04-24T14:46:50;6.90;;;2.60;;
54125;SDS011;40360;52.992;6.796;2023-04-24T14:49:16;8.15;;;2.00;;
54125;SDS011;40360;52.992;6.796;2023-04-24T14:51:41;6.25;;;2.00;;
54125;SDS011;40360;52.992;6.796;2023-04-24T14:54:07;9.27;;;2.45;;
54125;SDS011;40360;52.992;6.796;2023-04-24T14:56:33;11.73;;;3.15;;
54125;SDS011;40360;52.992;6.796;2023-04-24T14:58:59;13.60;;;3.28;;
54125;SDS011;40360;52.992;6.796;2023-04-24T15:01:24;15.32;;;2.75;;
54125;SDS011;40360;52.992;6.796;2023-04-24T15:03:50;8.55;;;2.47;;
54125;SDS011;40360;52.992;6.796;2023-04-24T15:06:15;9.93;;;2.47;;
54125;SDS011;40360;52.992;6.796;2023-04-24T15:08:41;5.13;;;2.40;;
54125;SDS011;40360;52.992;6.796;2023-04-24T15:11:07;10.75;;;2.28;;
54125;SDS011;40360;52.992;6.796;2023-04-24T15:13:34;11.98;;;2.75;;
54125;SDS011;40360;52.992;6.796;2023-04-24T15:15:59;9.27;;;2.70;;
54125;SDS011;40360;52.992;6.796;2023-04-24T15:18:25;9.20;;;2.63;;
54125;SDS011;40360;52.992;6.796;2023-04-24T15:20:52;10.77;;;3.53;;
54125;SDS011;40360;52.992;6.796;2023-04-24T15:23:18;10.15;;;2.95;;